createdAt,value
2018-06-04T00:01:14.214Z,19.60
2018-06-04T00:03:42.727Z,19.60
2018-06-04T00:06:11.312Z,19.60
2018-06-04T00:08:39.905Z,19.50
2018-06-04T00:11:08.426Z,19.40
2018-06-04T00:13:36.894Z,19.40
2018-06-04T00:16:06.324Z,19.30
2018-06-04T00:18:34.831Z,19.20
2018-06-04T00:21:03.289Z,19.20
2018-06-04T00:23:31.784Z,19.30
2018-06-04T00:26:00.226Z,19.30
2018-06-04T00:28:28.691Z,19.30
2018-06-04T00:30:57.165Z,19.30
2018-06-04T00:33:25.693Z,19.30
2018-06-04T00:35:54.316Z,19.30
2018-06-04T00:38:22.782Z,19.30
2018-06-04T00:40:51.341Z,19.30
2018-06-04T00:43:19.948Z,19.20
2018-06-04T00:45:48.545Z,19.20
2018-06-04T00:48:17.212Z,19.20
2018-06-04T00:50:45.891Z,19.20
2018-06-04T00:53:14.461Z,19.20
2018-06-04T00:56:51.318Z,19.20
2018-06-04T00:59:20.889Z,19.00
2018-06-04T01:01:49.810Z,18.70
2018-06-04T01:04:18.331Z,18.70
2018-06-04T01:06:47.633Z,18.50
2018-06-04T01:09:16.083Z,18.40
2018-06-04T01:11:45.151Z,18.50
2018-06-04T01:14:13.651Z,18.60
2018-06-04T01:16:42.531Z,18.70
2018-06-04T01:19:11.008Z,18.70
2018-06-04T01:21:39.837Z,18.70
2018-06-04T01:24:08.334Z,18.70
2018-06-04T01:26:36.809Z,18.60
2018-06-04T01:29:05.271Z,18.70
2018-06-04T01:31:33.807Z,18.70
2018-06-04T01:34:02.391Z,18.50
2018-06-04T01:36:31.021Z,18.40
2018-06-04T01:38:59.468Z,18.30
2018-06-04T01:41:28.213Z,18.30
2018-06-04T01:43:56.761Z,18.30
2018-06-04T01:46:25.288Z,18.30
2018-06-04T01:48:53.942Z,18.20
2018-06-04T01:51:22.473Z,18.20
2018-06-04T01:53:51.021Z,18.20
2018-06-04T01:56:19.753Z,18.20
2018-06-04T01:58:48.396Z,18.10
2018-06-04T02:01:17.022Z,18.00
2018-06-04T02:03:45.698Z,18.00
2018-06-04T02:06:14.353Z,18.10
2018-06-04T02:08:43.140Z,18.10
2018-06-04T02:11:11.617Z,18.20
2018-06-04T02:13:40.231Z,18.30
2018-06-04T02:16:08.814Z,18.30
2018-06-04T02:18:37.746Z,18.30
2018-06-04T02:21:06.389Z,18.30
2018-06-04T02:23:35.061Z,18.40
2018-06-04T02:26:04.328Z,18.30
2018-06-04T02:28:33.014Z,18.10
2018-06-04T02:31:01.587Z,18.10
2018-06-04T02:35:58.612Z,18.20
2018-06-04T02:38:27.146Z,18.30
2018-06-04T02:40:56.317Z,18.30
2018-06-04T02:43:24.838Z,18.30
2018-06-04T02:45:53.335Z,18.30
2018-06-04T02:48:22.086Z,18.30
2018-06-04T02:50:50.612Z,18.30
2018-06-04T02:53:19.115Z,18.30
2018-06-04T02:55:47.658Z,18.30
2018-06-04T02:58:16.228Z,18.30
2018-06-04T03:00:44.833Z,18.10
2018-06-04T03:03:13.307Z,18.00
2018-06-04T03:05:42.218Z,18.00
2018-06-04T03:08:10.651Z,18.00
2018-06-04T03:13:07.203Z,18.00
2018-06-04T03:15:35.919Z,18.00
2018-06-04T03:18:04.550Z,17.90
2018-06-04T03:20:33.366Z,17.90
2018-06-04T03:27:58.227Z,17.70
2018-06-04T03:30:26.951Z,17.70
2018-06-04T03:32:55.359Z,17.70
2018-06-04T03:35:23.873Z,17.50
2018-06-04T03:37:52.511Z,17.40
2018-06-04T03:40:20.887Z,17.40
2018-06-04T03:42:49.423Z,17.50
2018-06-04T03:45:18.132Z,17.50
2018-06-04T03:47:46.553Z,17.60
2018-06-04T03:50:15.065Z,17.60
2018-06-04T03:52:43.864Z,17.60
2018-06-04T03:55:12.853Z,17.70
2018-06-04T03:57:41.432Z,17.70
2018-06-04T04:00:10.794Z,17.70
2018-06-04T04:02:39.266Z,17.70
2018-06-04T04:05:08.566Z,17.70
2018-06-04T04:07:37.107Z,17.80
2018-06-04T04:10:05.591Z,17.70
2018-06-04T04:12:34.195Z,17.70
2018-06-04T04:15:02.699Z,17.80
2018-06-04T04:17:31.098Z,17.80
2018-06-04T04:19:59.675Z,17.90
2018-06-04T04:22:28.974Z,17.90
2018-06-04T04:24:57.408Z,18.00
2018-06-04T04:27:25.885Z,18.10
2018-06-04T04:29:54.301Z,18.10
2018-06-04T04:32:22.780Z,18.10
2018-06-04T04:34:51.208Z,18.10
2018-06-04T04:37:19.737Z,18.10
2018-06-04T04:39:48.218Z,18.20
2018-06-04T04:42:16.705Z,18.20
2018-06-04T04:44:45.454Z,18.30
2018-06-04T04:47:14.014Z,18.30
2018-06-04T04:49:42.636Z,18.30
2018-06-04T04:52:11.213Z,18.30
2018-06-04T04:54:39.684Z,18.30
2018-06-04T04:57:08.121Z,18.50
2018-06-04T04:59:36.613Z,18.50
2018-06-04T05:02:05.116Z,18.60
2018-06-04T05:04:33.544Z,18.70
2018-06-04T05:07:02.312Z,18.70
2018-06-04T05:09:30.879Z,18.80
2018-06-04T05:11:59.399Z,18.80
2018-06-04T05:14:27.888Z,18.70
2018-06-04T05:19:24.542Z,18.90
2018-06-04T05:24:21.181Z,19.20
2018-06-04T05:26:49.672Z,19.20
2018-06-04T05:29:18.194Z,19.10
2018-06-04T05:31:46.859Z,19.10
2018-06-04T05:34:15.242Z,19.20
2018-06-04T05:36:43.766Z,19.10
2018-06-04T05:39:12.243Z,19.00
2018-06-04T05:41:40.706Z,19.10
2018-06-04T05:44:09.208Z,19.20
2018-06-04T05:46:37.701Z,19.30
2018-06-04T05:49:06.155Z,19.30
2018-06-04T05:51:34.762Z,19.30
2018-06-04T05:54:03.225Z,19.50
2018-06-04T05:56:31.647Z,19.60
2018-06-04T05:59:00.182Z,19.70
2018-06-04T06:01:28.810Z,19.90
2018-06-04T06:03:57.501Z,20.10
2018-06-04T06:06:32.529Z,20.30
2018-06-04T06:09:01.413Z,20.30
2018-06-04T06:11:29.988Z,20.20
2018-06-04T06:13:58.585Z,20.20
2018-06-04T06:16:27.028Z,20.30
2018-06-04T06:18:55.503Z,20.30
2018-06-04T06:21:23.928Z,20.40
2018-06-04T06:23:52.365Z,20.60
2018-06-04T06:26:20.847Z,20.80
2018-06-04T06:28:49.290Z,20.90
2018-06-04T06:33:45.865Z,20.70
2018-06-04T06:36:14.380Z,20.80
2018-06-04T06:38:42.811Z,20.80
2018-06-04T06:41:11.240Z,20.90
2018-06-04T06:43:39.656Z,21.00
2018-06-04T06:46:08.128Z,21.10
2018-06-04T06:48:36.605Z,21.20
2018-06-04T06:51:05.039Z,21.40
2018-06-04T06:53:33.481Z,21.30
2018-06-04T06:56:01.942Z,21.40
2018-06-04T06:58:30.424Z,21.60
2018-06-04T07:00:58.874Z,21.80
2018-06-04T07:03:27.306Z,21.60
2018-06-04T07:05:55.738Z,21.70
2018-06-04T07:08:24.171Z,22.00
2018-06-04T07:10:52.743Z,22.10
2018-06-04T07:13:21.163Z,22.20
2018-06-04T07:15:49.673Z,22.10
2018-06-04T07:18:18.104Z,22.10
2018-06-04T07:20:46.545Z,22.10
2018-06-04T07:23:14.996Z,22.50
2018-06-04T07:25:43.498Z,22.60
2018-06-04T07:28:11.922Z,22.80
2018-06-04T07:33:08.558Z,23.00
2018-06-04T07:35:37.061Z,23.30
2018-06-04T07:38:05.548Z,23.50
2018-06-04T07:40:33.957Z,23.80
2018-06-04T07:43:02.741Z,24.00
2018-06-04T07:45:31.227Z,23.60
2018-06-04T07:47:59.681Z,23.30
2018-06-04T07:50:28.485Z,23.50
2018-06-04T07:52:57.791Z,23.90
2018-06-04T07:55:26.365Z,24.40
2018-06-04T07:57:54.801Z,24.80
2018-06-04T08:00:23.229Z,25.00
2018-06-04T08:02:51.702Z,25.30
2018-06-04T08:05:20.115Z,25.50
2018-06-04T08:07:48.536Z,25.80
2018-06-04T08:10:17.003Z,25.60
2018-06-04T08:12:45.340Z,25.40
2018-06-04T08:15:13.881Z,25.50
2018-06-04T08:17:42.318Z,25.50
2018-06-04T08:20:10.817Z,25.80
2018-06-04T08:22:39.339Z,26.00
2018-06-04T08:25:07.953Z,26.50
2018-06-04T08:27:36.545Z,26.70
2018-06-04T08:30:05.235Z,26.50
2018-06-04T08:32:33.785Z,26.60
2018-06-04T08:35:02.277Z,26.90
2018-06-04T08:37:31.027Z,27.00
2018-06-04T08:39:59.564Z,27.70
2018-06-04T08:42:27.999Z,28.30
2018-06-04T08:44:56.610Z,28.10
2018-06-04T08:47:25.789Z,28.70
2018-06-04T08:49:54.251Z,28.20
2018-06-04T08:52:22.681Z,28.10
2018-06-04T08:54:51.109Z,27.70
2018-06-04T08:59:47.642Z,28.10
2018-06-04T09:02:16.073Z,28.10
2018-06-04T09:04:44.553Z,28.60
2018-06-04T09:07:13.094Z,28.10
2018-06-04T09:09:41.936Z,28.30
2018-06-04T09:12:10.380Z,29.30
2018-06-04T09:14:38.873Z,29.20
2018-06-04T09:17:07.345Z,29.70
2018-06-04T09:19:35.784Z,30.20
2018-06-04T09:22:04.372Z,30.50
2018-06-04T09:24:32.824Z,30.60
2018-06-04T09:27:01.353Z,30.20
2018-06-04T09:29:30.070Z,30.20
2018-06-04T09:31:58.565Z,29.40
2018-06-04T09:34:27.029Z,29.30
2018-06-04T09:36:55.485Z,29.10
2018-06-04T09:39:23.983Z,28.80
2018-06-04T09:44:20.633Z,30.30
2018-06-04T09:49:17.337Z,30.10
2018-06-04T09:51:45.846Z,29.50
2018-06-04T09:54:14.369Z,29.50
2018-06-04T09:56:42.761Z,29.90
2018-06-04T09:59:11.244Z,29.60
2018-06-04T10:01:39.824Z,30.10
2018-06-04T10:04:08.354Z,30.90
2018-06-04T10:06:37.452Z,31.30
2018-06-04T10:09:08.039Z,30.60
2018-06-04T10:11:36.532Z,30.40
2018-06-04T10:14:05.516Z,31.10
2018-06-04T10:16:33.984Z,31.40
2018-06-04T10:19:02.484Z,30.50
2018-06-04T10:21:30.953Z,30.30
2018-06-04T10:23:59.449Z,30.10
2018-06-04T10:26:28.333Z,30.00
2018-06-04T10:28:56.852Z,31.00
2018-06-04T10:31:25.365Z,31.80
2018-06-04T10:33:53.871Z,32.10
2018-06-04T10:36:22.420Z,31.70
2018-06-04T10:38:50.989Z,30.80
2018-06-04T10:41:19.514Z,30.70
2018-06-04T10:43:48.237Z,30.20
2018-06-04T10:46:16.684Z,30.60
2018-06-04T10:48:45.162Z,30.60
2018-06-04T10:51:13.679Z,30.60
2018-06-04T10:53:42.664Z,30.60
2018-06-04T10:56:11.095Z,31.40
2018-06-04T10:58:39.652Z,31.40
2018-06-04T11:01:08.176Z,31.70
2018-06-04T11:03:36.594Z,32.20
2018-06-04T11:06:05.143Z,31.70
2018-06-04T11:08:33.588Z,32.20
2018-06-04T11:11:02.109Z,32.30
2018-06-04T11:13:30.659Z,32.00
2018-06-04T11:15:59.210Z,31.00
2018-06-04T11:18:27.680Z,31.30
2018-06-04T11:20:56.265Z,31.30
2018-06-04T11:23:24.714Z,31.50
2018-06-04T11:25:53.150Z,31.60
2018-06-04T11:28:21.617Z,31.70
2018-06-04T11:30:50.603Z,32.20
2018-06-04T11:33:19.137Z,32.50
2018-06-04T11:35:47.622Z,31.70
2018-06-04T11:38:16.052Z,31.40
2018-06-04T11:40:44.482Z,31.20
2018-06-04T11:43:13.007Z,31.90
2018-06-04T11:45:41.497Z,32.20
2018-06-04T11:48:10.057Z,32.70
2018-06-04T11:50:38.585Z,32.30
2018-06-04T11:55:35.534Z,31.70
2018-06-04T11:58:05.133Z,30.70
2018-06-04T12:00:33.638Z,31.00
2018-06-04T12:03:02.176Z,31.50
2018-06-04T12:05:30.756Z,31.80
2018-06-04T12:07:59.162Z,32.40
2018-06-04T12:13:36.036Z,31.80
2018-06-04T12:16:04.542Z,32.40
2018-06-04T12:18:33.060Z,32.60
2018-06-04T12:21:01.571Z,33.10
2018-06-04T12:23:38.673Z,33.50
2018-06-04T12:26:07.118Z,33.40
2018-06-04T12:28:35.713Z,33.60
2018-06-04T12:31:26.293Z,33.20
2018-06-04T12:33:54.781Z,33.00
2018-06-04T12:36:24.308Z,33.10
2018-06-04T12:38:52.862Z,33.00
2018-06-04T12:41:21.276Z,33.00
2018-06-04T12:43:50.188Z,32.30
2018-06-04T12:46:18.638Z,31.20
2018-06-04T12:48:47.184Z,30.80
2018-06-04T12:51:19.448Z,31.10
2018-06-04T12:53:48.021Z,31.40
2018-06-04T12:58:45.438Z,31.20
2018-06-04T13:01:14.091Z,30.70
2018-06-04T13:03:43.850Z,30.70
2018-06-04T13:06:12.504Z,31.20
2018-06-04T13:08:41.098Z,30.80
2018-06-04T13:11:10.247Z,30.20
2018-06-04T13:13:38.882Z,29.70
2018-06-04T13:16:07.459Z,30.00
2018-06-04T13:18:35.944Z,30.30
2018-06-04T13:21:04.441Z,30.60
2018-06-04T13:23:32.904Z,30.60
2018-06-04T13:26:01.524Z,30.60
2018-06-04T13:28:30.085Z,30.40
2018-06-04T13:30:58.681Z,30.40
2018-06-04T13:33:27.172Z,30.40
2018-06-04T13:35:55.684Z,30.40
2018-06-04T13:38:24.221Z,29.90
2018-06-04T13:40:52.897Z,29.60
2018-06-04T13:43:21.505Z,30.00
2018-06-04T13:45:50.143Z,30.80
2018-06-04T13:48:18.657Z,30.80
2018-06-04T13:50:47.078Z,31.20
2018-06-04T13:53:15.612Z,31.10
2018-06-04T13:55:44.161Z,30.50
2018-06-04T13:58:12.593Z,29.60
2018-06-04T14:00:41.157Z,29.10
2018-06-04T14:03:09.595Z,29.10
2018-06-04T14:10:34.693Z,28.70
2018-06-04T14:13:03.153Z,28.90
2018-06-04T14:15:31.596Z,29.10
2018-06-04T14:18:00.110Z,29.20
2018-06-04T14:20:28.803Z,29.30
2018-06-04T14:22:57.370Z,29.40
2018-06-04T14:25:25.856Z,29.40
2018-06-04T14:27:54.400Z,29.60
2018-06-04T14:30:22.905Z,30.00
2018-06-04T14:32:51.508Z,30.40
2018-06-04T14:35:19.950Z,30.40
2018-06-04T14:37:48.672Z,30.00
2018-06-04T14:40:17.202Z,29.60
2018-06-04T14:42:45.757Z,29.30
2018-06-04T14:45:14.352Z,29.00
2018-06-04T14:47:42.881Z,28.80
2018-06-04T14:52:39.634Z,28.90
2018-06-04T14:55:08.138Z,29.10
2018-06-04T14:57:36.573Z,29.00
2018-06-04T15:00:05.130Z,29.30
2018-06-04T15:02:33.576Z,28.90
2018-06-04T15:05:02.095Z,28.50
2018-06-04T15:07:30.667Z,28.30
2018-06-04T15:09:59.261Z,28.20
2018-06-04T15:12:27.828Z,28.10
2018-06-04T15:14:56.273Z,28.30
2018-06-04T15:19:53.339Z,28.40
2018-06-04T15:22:21.946Z,28.70
2018-06-04T15:24:50.594Z,28.80
2018-06-04T15:27:19.117Z,28.80
2018-06-04T15:29:47.705Z,28.80
2018-06-04T15:32:16.265Z,28.60
2018-06-04T15:34:44.740Z,28.30
2018-06-04T15:37:13.242Z,28.30
2018-06-04T15:39:41.739Z,28.50
2018-06-04T15:42:10.211Z,28.70
2018-06-04T15:44:38.710Z,28.80
2018-06-04T15:47:07.328Z,28.90
2018-06-04T15:49:36.057Z,29.00
2018-06-04T15:52:04.763Z,29.10
2018-06-04T15:54:33.297Z,29.00
2018-06-04T15:57:01.826Z,28.90
2018-06-04T15:59:30.346Z,28.90
2018-06-04T16:01:58.996Z,29.00
2018-06-04T16:04:27.541Z,29.00
2018-06-04T16:06:56.001Z,28.90
2018-06-04T16:09:24.531Z,29.00
2018-06-04T16:11:53.129Z,28.90
2018-06-04T16:14:21.705Z,28.80
2018-06-04T16:16:50.305Z,28.80
2018-06-04T16:19:18.986Z,28.70
2018-06-04T16:21:47.460Z,28.60
2018-06-04T16:24:15.935Z,28.40
2018-06-04T16:26:44.424Z,28.50
2018-06-04T16:29:13.042Z,28.40
2018-06-04T16:31:41.588Z,28.40
2018-06-04T16:34:10.267Z,28.40
2018-06-04T16:36:38.863Z,28.40
2018-06-04T16:39:09.352Z,28.50
2018-06-04T16:41:38.138Z,28.50
2018-06-04T16:44:06.786Z,28.50
2018-06-04T16:46:35.325Z,28.40
2018-06-04T16:49:03.780Z,28.40
2018-06-04T16:51:32.329Z,28.40
2018-06-04T16:54:01.102Z,28.40
2018-06-04T16:56:29.634Z,28.20
2018-06-04T17:01:29.715Z,28.10
2018-06-04T17:03:58.405Z,28.10
2018-06-04T17:06:27.320Z,28.00
2018-06-04T17:08:55.929Z,28.00
2018-06-04T17:11:25.118Z,27.90
2018-06-04T17:13:54.645Z,27.90
2018-06-04T17:16:23.373Z,27.90
2018-06-04T17:18:51.936Z,27.80
2018-06-04T17:21:20.567Z,27.70
2018-06-04T17:23:49.223Z,27.70
2018-06-04T17:26:18.474Z,27.70
2018-06-04T17:28:47.104Z,27.70
2018-06-04T17:31:15.725Z,27.60
2018-06-04T17:36:12.454Z,27.50
2018-06-04T17:38:41.176Z,27.50
2018-06-04T17:41:09.789Z,27.40
2018-06-04T17:43:38.745Z,27.40
2018-06-04T17:46:07.381Z,27.30
2018-06-04T17:48:35.977Z,27.20
2018-06-04T17:51:04.770Z,27.10
2018-06-04T17:53:33.461Z,27.10
2018-06-04T17:56:02.035Z,27.10
2018-06-04T17:58:40.334Z,27.10
2018-06-04T18:01:08.913Z,27.00
2018-06-04T18:03:37.352Z,26.90
2018-06-04T18:08:35.076Z,26.80
2018-06-04T18:11:03.731Z,26.70
2018-06-04T18:13:32.344Z,26.60
2018-06-04T18:16:00.901Z,26.50
2018-06-04T18:18:29.628Z,26.60
2018-06-04T18:20:58.097Z,26.50
2018-06-04T18:23:26.586Z,26.40
2018-06-04T18:25:55.055Z,26.30
2018-06-04T18:28:23.538Z,26.30
2018-06-04T18:30:52.719Z,26.20
2018-06-04T18:33:21.148Z,26.10
2018-06-04T18:35:49.620Z,26.10
2018-06-04T18:38:18.354Z,26.00
2018-06-04T18:40:46.876Z,26.00
2018-06-04T18:43:21.929Z,25.90
2018-06-04T18:45:50.404Z,25.90
2018-06-04T18:48:18.984Z,25.80
2018-06-04T18:50:47.500Z,25.70
2018-06-04T18:53:16.031Z,25.70
2018-06-04T18:55:44.517Z,25.60
2018-06-04T18:58:13.094Z,25.50
2018-06-04T19:00:41.826Z,25.40
2018-06-04T19:03:10.390Z,25.40
2018-06-04T19:05:39.098Z,25.30
2018-06-04T19:08:07.664Z,25.30
2018-06-04T19:10:36.155Z,25.20
2018-06-04T19:13:04.920Z,25.20
2018-06-04T19:15:33.446Z,25.10
2018-06-04T19:18:01.908Z,25.00
2018-06-04T19:20:30.364Z,25.00
2018-06-04T19:22:58.842Z,25.00
2018-06-04T19:25:27.304Z,24.90
2018-06-04T19:27:56.740Z,24.80
2018-06-04T19:30:25.198Z,24.80
2018-06-04T19:32:53.775Z,24.80
2018-06-04T19:35:22.789Z,24.70
2018-06-04T19:37:51.354Z,24.70
2018-06-04T19:40:19.821Z,24.60
2018-06-04T19:42:48.446Z,24.50
2018-06-04T19:45:16.868Z,24.40
2018-06-04T19:50:13.805Z,24.20
2018-06-04T19:52:42.351Z,24.20
2018-06-04T19:55:11.038Z,24.20
2018-06-04T19:57:39.466Z,24.10
2018-06-04T20:02:45.061Z,23.90
2018-06-04T20:05:13.672Z,23.90
2018-06-04T20:07:42.456Z,23.90
2018-06-04T20:10:11.183Z,23.90
2018-06-04T20:12:39.675Z,23.80
2018-06-04T20:15:08.163Z,23.80
2018-06-04T20:17:36.638Z,23.80
2018-06-04T20:20:07.757Z,23.80
2018-06-04T20:22:36.283Z,23.80
2018-06-04T20:25:05.114Z,23.70
2018-06-04T20:27:34.026Z,23.60
2018-06-04T20:30:02.497Z,23.50
2018-06-04T20:32:30.969Z,23.40
2018-06-04T20:34:59.440Z,23.30
2018-06-04T20:37:27.924Z,23.20
2018-06-04T20:39:56.746Z,23.00
2018-06-04T20:42:25.393Z,23.00
2018-06-04T20:44:59.890Z,23.00
2018-06-04T20:47:28.353Z,22.90
2018-06-04T20:50:33.073Z,22.90
2018-06-04T20:53:01.557Z,22.80
2018-06-04T20:55:30.081Z,22.70
2018-06-04T20:57:58.705Z,22.80
2018-06-04T21:00:27.554Z,22.80
2018-06-04T21:02:56.401Z,22.70
2018-06-04T21:05:29.886Z,22.70
2018-06-04T21:10:38.570Z,22.60
2018-06-04T21:13:07.132Z,22.40
2018-06-04T21:15:35.629Z,22.50
2018-06-04T21:18:04.078Z,22.30
2018-06-04T21:20:32.555Z,22.40
2018-06-04T21:23:01.000Z,22.40
2018-06-04T21:25:29.520Z,22.50
2018-06-04T21:27:58.051Z,22.40
2018-06-04T21:30:26.501Z,22.40
2018-06-04T21:32:55.001Z,22.40
2018-06-04T21:35:23.480Z,22.40
2018-06-04T21:37:51.995Z,22.40
2018-06-04T21:40:20.477Z,22.30
2018-06-04T21:42:48.963Z,22.30
2018-06-04T21:45:17.516Z,22.40
2018-06-04T21:47:45.993Z,22.40
2018-06-04T21:50:14.517Z,22.40
2018-06-04T21:52:42.952Z,22.30
2018-06-04T21:55:11.496Z,22.30
2018-06-04T21:57:39.956Z,22.40
2018-06-04T22:00:09.750Z,22.40
2018-06-04T22:02:38.701Z,22.40
2018-06-04T22:05:07.164Z,22.50
2018-06-04T22:07:35.898Z,22.50
2018-06-04T22:10:04.828Z,22.50
2018-06-04T22:12:33.333Z,22.50
2018-06-04T22:17:29.878Z,22.30
2018-06-04T22:19:58.348Z,22.20
2018-06-04T22:22:26.796Z,22.20
2018-06-04T22:24:55.214Z,22.00
2018-06-04T22:27:23.706Z,22.00
2018-06-04T22:29:52.172Z,22.00
2018-06-04T22:32:20.626Z,21.90
2018-06-04T22:34:49.079Z,21.80
2018-06-04T22:37:17.529Z,21.80
2018-06-04T22:39:45.981Z,21.80
2018-06-04T22:42:14.465Z,21.80
2018-06-04T22:44:42.940Z,21.70
2018-06-04T22:47:11.425Z,21.70
2018-06-04T22:49:39.844Z,21.70
2018-06-04T22:52:08.322Z,21.70
2018-06-04T22:54:36.812Z,21.60
2018-06-04T22:57:05.290Z,21.50
2018-06-04T22:59:33.765Z,21.50
2018-06-04T23:04:30.375Z,21.40
2018-06-04T23:06:58.855Z,21.40
2018-06-04T23:09:27.305Z,21.40
2018-06-04T23:11:55.858Z,21.30
2018-06-04T23:14:24.293Z,21.20
2018-06-04T23:16:52.773Z,21.20
2018-06-04T23:19:21.254Z,21.30
2018-06-04T23:21:49.690Z,21.30
2018-06-04T23:24:18.128Z,21.30
2018-06-04T23:26:46.591Z,21.30
2018-06-04T23:29:15.048Z,21.30
2018-06-04T23:31:43.478Z,21.30
2018-06-04T23:34:11.957Z,21.30
2018-06-04T23:36:40.377Z,21.20
2018-06-04T23:39:09.224Z,21.10
2018-06-04T23:41:37.713Z,21.00
2018-06-04T23:44:06.138Z,21.00
2018-06-04T23:46:34.567Z,21.00
2018-06-04T23:49:03.050Z,21.00
2018-06-04T23:51:31.479Z,21.00
2018-06-04T23:53:59.935Z,20.90
2018-06-04T23:58:56.530Z,20.80
